createdAt,value
2022-08-11T00:00:12.947Z,40.08
2022-08-11T00:02:40.882Z,40.51
2022-08-11T00:05:08.772Z,40.43
2022-08-11T00:07:36.497Z,40.45
2022-08-11T00:10:04.185Z,40.29
2022-08-11T00:12:31.865Z,40.32
2022-08-11T00:14:59.547Z,40.10
2022-08-11T00:17:27.295Z,40.47
2022-08-11T00:20:13.085Z,40.10
2022-08-11T00:22:42.675Z,40.31
2022-08-11T00:25:11.122Z,40.35
2022-08-11T00:27:38.851Z,40.18
2022-08-11T00:30:06.631Z,40.20
2022-08-11T00:32:34.643Z,40.35
2022-08-11T00:35:54.809Z,40.14
2022-08-11T00:37:50.802Z,40.11
2022-08-11T00:40:18.538Z,40.02
2022-08-11T00:42:46.278Z,39.98
2022-08-11T00:45:13.994Z,40.12
2022-08-11T00:50:50.920Z,40.17
2022-08-11T00:53:19.086Z,40.04
2022-08-11T00:55:47.201Z,40.31
2022-08-11T00:58:23.438Z,40.01
2022-08-11T01:00:54.541Z,40.09
2022-08-11T01:03:22.405Z,40.18
2022-08-11T01:05:50.447Z,40.11
2022-08-11T01:08:18.461Z,40.26
2022-08-11T01:10:46.290Z,40.13
2022-08-11T01:13:14.018Z,39.93
2022-08-11T01:15:41.876Z,40.18
2022-08-11T01:18:23.758Z,40.04
2022-08-11T01:20:56.322Z,39.87
2022-08-11T01:23:24.392Z,39.91
2022-08-11T01:25:56.999Z,40.06
2022-08-11T01:28:26.092Z,40.14
2022-08-11T01:30:54.431Z,39.93
2022-08-11T01:33:23.235Z,40.03
2022-08-11T01:35:51.008Z,40.05
2022-08-11T01:38:18.959Z,39.92
2022-08-11T01:40:46.843Z,40.11
2022-08-11T01:43:32.033Z,39.82
2022-08-11T01:45:59.957Z,40.19
2022-08-11T01:48:27.697Z,40.08
2022-08-11T01:50:55.531Z,40.11
2022-08-11T01:53:23.277Z,40.02
2022-08-11T01:55:55.323Z,40.26
2022-08-11T01:58:36.265Z,39.95
2022-08-11T02:01:11.795Z,40.01
2022-08-11T02:03:39.609Z,40.08
2022-08-11T02:06:27.388Z,39.92
2022-08-11T02:08:55.117Z,40.09
2022-08-11T02:11:31.562Z,40.24
2022-08-11T02:14:03.358Z,40.24
2022-08-11T02:16:32.008Z,39.88
2022-08-11T02:19:17.375Z,40.18
2022-08-11T02:22:02.769Z,40.04
2022-08-11T02:24:32.795Z,40.18
2022-08-11T02:27:00.955Z,40.31
2022-08-11T02:29:28.711Z,40.33
2022-08-11T02:32:28.707Z,40.54
2022-08-11T02:34:59.485Z,40.02
2022-08-11T02:37:28.255Z,39.99
2022-08-11T02:39:55.985Z,40.16
2022-08-11T02:42:32.869Z,40.40
2022-08-11T02:45:10.366Z,40.23
2022-08-11T02:47:39.160Z,40.10
2022-08-11T02:50:07.170Z,40.11
2022-08-11T02:52:35.796Z,40.12
2022-08-11T02:55:03.584Z,39.95
2022-08-11T02:57:31.683Z,40.28
2022-08-11T02:59:59.608Z,40.05
2022-08-11T03:02:27.783Z,40.09
2022-08-11T03:04:55.662Z,40.11
2022-08-11T03:07:28.130Z,40.05
2022-08-11T03:09:57.008Z,40.27
2022-08-11T03:12:42.285Z,40.09
2022-08-11T03:15:27.656Z,40.19
2022-08-11T03:17:56.193Z,40.15
2022-08-11T03:20:23.912Z,40.28
2022-08-11T03:22:51.667Z,40.63
2022-08-11T03:25:19.435Z,40.38
2022-08-11T03:27:47.177Z,40.56
2022-08-11T03:30:15.419Z,40.87
2022-08-11T03:32:43.567Z,41.03
2022-08-11T03:35:10.292Z,40.61
2022-08-11T03:37:52.076Z,40.58
2022-08-11T03:40:39.919Z,40.64
2022-08-11T03:43:07.757Z,40.77
2022-08-11T03:45:41.002Z,41.05
2022-08-11T03:48:09.029Z,40.58
2022-08-11T03:50:36.745Z,40.49
2022-08-11T03:53:04.482Z,40.85
2022-08-11T03:55:32.618Z,40.54
2022-08-11T03:58:00.319Z,40.56
2022-08-11T04:00:28.097Z,40.54
2022-08-11T04:02:55.791Z,40.75
2022-08-11T04:05:24.799Z,40.40
2022-08-11T04:07:52.698Z,40.68
2022-08-11T04:10:20.416Z,40.50
2022-08-11T04:12:48.142Z,40.70
2022-08-11T04:15:33.307Z,40.82
2022-08-11T04:18:01.009Z,40.69
2022-08-11T04:20:28.975Z,40.54
2022-08-11T04:22:59.102Z,40.75
2022-08-11T04:25:26.868Z,40.69
2022-08-11T04:27:54.598Z,40.68
2022-08-11T04:30:22.378Z,40.65
2022-08-11T04:32:54.504Z,40.44
2022-08-11T04:35:22.247Z,40.52
2022-08-11T04:37:53.589Z,40.57
2022-08-11T04:40:21.448Z,40.57
2022-08-11T04:43:06.094Z,40.44
2022-08-11T04:45:34.556Z,40.86
2022-08-11T04:48:20.087Z,40.72
2022-08-11T04:51:17.216Z,41.06
2022-08-11T04:54:03.209Z,40.67
2022-08-11T04:56:48.363Z,41.22
2022-08-11T04:59:33.477Z,40.57
2022-08-11T05:02:01.440Z,40.61
2022-08-11T05:04:46.929Z,40.98
2022-08-11T05:07:14.644Z,40.58
2022-08-11T05:09:42.299Z,40.67
2022-08-11T05:12:10.074Z,40.60
2022-08-11T05:14:55.406Z,40.40
2022-08-11T05:17:40.985Z,40.56
2022-08-11T05:20:34.799Z,40.70
2022-08-11T05:23:20.039Z,40.53
2022-08-11T05:26:43.779Z,40.46
2022-08-11T05:29:20.165Z,40.49
2022-08-11T05:32:06.250Z,40.73
2022-08-11T05:34:53.358Z,40.38
2022-08-11T05:37:27.262Z,40.43
2022-08-11T05:40:12.977Z,40.59
2022-08-11T05:42:58.238Z,40.60
2022-08-11T05:46:03.901Z,40.75
2022-08-11T05:48:48.359Z,40.92
2022-08-11T05:51:33.626Z,40.64
2022-08-11T05:54:28.259Z,40.54
2022-08-11T05:56:57.284Z,40.69
2022-08-11T05:59:25.002Z,40.65
2022-08-11T06:01:52.864Z,40.65
2022-08-11T06:04:20.667Z,40.35
2022-08-11T06:06:51.251Z,40.68
2022-08-11T06:09:18.966Z,40.82
2022-08-11T06:11:49.826Z,40.51
2022-08-11T06:14:17.596Z,40.64
2022-08-11T06:16:45.295Z,40.64
2022-08-11T06:19:13.016Z,40.44
2022-08-11T06:21:40.716Z,40.72
2022-08-11T06:24:08.420Z,40.46
2022-08-11T06:26:49.569Z,40.42
2022-08-11T06:29:23.852Z,40.29
2022-08-11T06:32:08.743Z,40.54
2022-08-11T06:34:36.509Z,40.26
2022-08-11T06:37:04.217Z,40.44
2022-08-11T06:39:31.945Z,40.45
2022-08-11T06:41:59.662Z,40.45
2022-08-11T06:44:27.440Z,40.12
2022-08-11T06:47:01.094Z,40.48
2022-08-11T06:49:46.243Z,40.39
2022-08-11T06:52:33.999Z,40.35
2022-08-11T06:55:06.194Z,40.37
2022-08-11T06:57:51.230Z,40.26
2022-08-11T07:00:33.188Z,40.28
2022-08-11T07:03:02.150Z,40.38
2022-08-11T07:05:29.835Z,40.19
2022-08-11T07:08:34.444Z,40.41
2022-08-11T07:11:20.315Z,40.40
2022-08-11T07:14:05.510Z,40.38
2022-08-11T07:16:34.780Z,40.33
2022-08-11T07:19:20.031Z,40.41
2022-08-11T07:22:05.185Z,40.57
2022-08-11T07:25:01.348Z,40.33
2022-08-11T07:27:48.240Z,40.20
2022-08-11T07:30:15.964Z,40.32
2022-08-11T07:32:43.698Z,40.16
2022-08-11T07:35:13.246Z,40.05
2022-08-11T07:37:41.476Z,40.13
2022-08-11T07:40:09.233Z,40.03
2022-08-11T07:42:37.384Z,40.05
2022-08-11T07:45:23.205Z,40.18
2022-08-11T07:48:08.641Z,40.04
2022-08-11T07:50:56.867Z,40.24
2022-08-11T07:53:24.614Z,40.15
2022-08-11T07:55:53.547Z,40.13
2022-08-11T07:58:45.487Z,40.05
2022-08-11T08:01:37.771Z,40.14
2022-08-11T08:04:23.316Z,40.04
2022-08-11T08:07:08.712Z,40.08
2022-08-11T08:09:53.858Z,40.17
2022-08-11T08:12:39.395Z,40.27
2022-08-11T08:15:24.622Z,40.08
2022-08-11T08:18:09.316Z,40.18
2022-08-11T08:20:40.795Z,40.33
2022-08-11T08:23:08.471Z,40.20
2022-08-11T08:25:36.172Z,40.24
2022-08-11T08:28:03.893Z,40.29
2022-08-11T08:30:50.766Z,40.07
2022-08-11T08:33:18.828Z,39.96
2022-08-11T08:35:54.688Z,39.87
2022-08-11T08:38:23.978Z,40.13
2022-08-11T08:40:51.772Z,40.24
2022-08-11T08:43:19.504Z,39.75
2022-08-11T08:45:47.195Z,40.03
2022-08-11T08:48:14.897Z,40.03
2022-08-11T08:51:08.065Z,39.90
2022-08-11T08:53:35.895Z,40.14
2022-08-11T08:56:03.624Z,40.15
2022-08-11T08:58:31.348Z,39.97
2022-08-11T09:00:59.101Z,40.22
2022-08-11T09:04:04.921Z,39.97
2022-08-11T09:06:16.723Z,40.05
2022-08-11T09:08:44.642Z,40.13
2022-08-11T09:11:30.117Z,40.08
2022-08-11T09:14:05.105Z,39.65
2022-08-11T09:16:35.252Z,39.64
2022-08-11T09:19:03.042Z,39.92
2022-08-11T09:21:46.234Z,40.10
2022-08-11T09:24:36.828Z,39.89
2022-08-11T09:27:04.560Z,40.02
2022-08-11T09:29:32.458Z,39.85
2022-08-11T09:32:00.227Z,40.10
2022-08-11T09:34:27.976Z,40.00
2022-08-11T09:37:13.100Z,39.97
2022-08-11T09:39:58.645Z,39.94
2022-08-11T09:42:47.476Z,39.89
2022-08-11T09:45:14.218Z,39.96
2022-08-11T09:47:41.931Z,39.51
2022-08-11T09:50:09.691Z,39.50
2022-08-11T09:52:37.509Z,39.51
2022-08-11T09:55:06.306Z,39.10
2022-08-11T09:57:51.718Z,39.59
2022-08-11T10:00:21.059Z,39.34
2022-08-11T10:02:48.818Z,39.12
2022-08-11T10:05:36.462Z,39.01
2022-08-11T10:08:04.242Z,39.69
2022-08-11T10:10:32.584Z,39.36
2022-08-11T10:13:02.932Z,39.45
2022-08-11T10:15:35.563Z,39.13
2022-08-11T10:18:20.852Z,39.48
2022-08-11T10:20:50.276Z,39.40
2022-08-11T10:23:35.328Z,39.32
2022-08-11T10:26:40.464Z,39.64
2022-08-11T10:29:36.815Z,39.67
2022-08-11T10:32:23.185Z,39.57
2022-08-11T10:34:58.001Z,39.63
2022-08-11T10:38:07.466Z,39.33
2022-08-11T10:40:15.719Z,38.96
2022-08-11T10:43:09.283Z,39.20
2022-08-11T10:45:54.566Z,39.14
2022-08-11T10:48:22.267Z,39.22
2022-08-11T10:51:07.430Z,39.50
2022-08-11T10:53:52.871Z,39.06
2022-08-11T10:56:38.168Z,39.49
2022-08-11T10:59:08.984Z,39.06
2022-08-11T11:01:37.522Z,39.54
2022-08-11T11:04:05.311Z,39.25
2022-08-11T11:06:33.002Z,39.41
2022-08-11T11:09:04.182Z,39.43
2022-08-11T11:11:46.488Z,39.38
2022-08-11T11:14:31.973Z,39.20
2022-08-11T11:17:20.366Z,39.46
2022-08-11T11:19:48.103Z,39.00
2022-08-11T11:22:33.588Z,39.42
2022-08-11T11:25:01.398Z,38.96
2022-08-11T11:27:29.122Z,39.31
2022-08-11T11:29:56.888Z,39.31
2022-08-11T11:32:24.694Z,39.19
2022-08-11T11:34:54.023Z,39.35
2022-08-11T11:37:21.869Z,39.28
2022-08-11T11:39:49.726Z,39.46
2022-08-11T11:42:17.567Z,38.90
2022-08-11T11:47:32.247Z,39.29
2022-08-11T11:49:59.935Z,39.46
2022-08-11T11:52:27.651Z,39.23
2022-08-11T11:54:55.363Z,39.02
2022-08-11T11:57:40.884Z,39.21
2022-08-11T12:00:43.442Z,38.72
2022-08-11T12:03:11.477Z,38.94
2022-08-11T12:05:40.809Z,38.71
2022-08-11T12:08:14.543Z,38.99
2022-08-11T12:10:42.238Z,39.24
2022-08-11T12:13:27.493Z,39.24
2022-08-11T12:16:04.425Z,39.08
2022-08-11T12:18:42.952Z,38.83
2022-08-11T12:21:10.638Z,38.27
2022-08-11T12:23:56.940Z,39.06
2022-08-11T12:26:44.361Z,39.05
2022-08-11T12:29:32.163Z,38.90
2022-08-11T12:32:00.589Z,39.37
2022-08-11T12:34:28.309Z,39.29
2022-08-11T12:36:56.077Z,39.12
2022-08-11T12:40:16.199Z,39.27
2022-08-11T12:42:50.623Z,38.93
2022-08-11T12:45:29.528Z,39.45
2022-08-11T12:49:00.882Z,39.05
2022-08-11T12:51:24.594Z,39.17
2022-08-11T12:53:52.322Z,39.13
2022-08-11T12:56:37.515Z,38.91
2022-08-11T12:59:22.695Z,38.88
2022-08-11T13:02:07.762Z,39.35
2022-08-11T13:04:56.179Z,38.82
2022-08-11T13:07:25.427Z,39.35
2022-08-11T13:09:53.129Z,38.61
2022-08-11T13:12:38.555Z,38.94
2022-08-11T13:15:06.443Z,39.06
2022-08-11T13:17:44.189Z,39.25
2022-08-11T13:20:12.783Z,39.32
2022-08-11T13:22:40.650Z,39.40
2022-08-11T13:25:08.472Z,39.49
2022-08-11T13:27:42.762Z,38.67
2022-08-11T13:30:27.980Z,39.02
2022-08-11T13:32:55.951Z,38.85
2022-08-11T13:35:23.737Z,39.13
2022-08-11T13:38:18.927Z,39.33
2022-08-11T13:40:55.247Z,38.63
2022-08-11T13:43:23.959Z,38.87
2022-08-11T13:45:52.976Z,39.10
2022-08-11T13:48:20.716Z,38.96
2022-08-11T13:51:06.006Z,38.79
2022-08-11T13:53:33.673Z,38.71
2022-08-11T13:56:01.598Z,38.53
2022-08-11T13:58:40.210Z,38.55
2022-08-11T14:02:03.317Z,39.06
2022-08-11T14:04:30.305Z,38.58
2022-08-11T14:06:44.721Z,38.69
2022-08-11T14:09:12.496Z,38.65
2022-08-11T14:12:21.921Z,39.09
2022-08-11T14:14:45.338Z,39.02
2022-08-11T14:17:13.068Z,38.68
2022-08-11T14:20:01.380Z,38.69
2022-08-11T14:22:48.094Z,38.88
2022-08-11T14:25:16.850Z,38.97
2022-08-11T14:28:34.415Z,38.98
2022-08-11T14:30:50.111Z,38.91
2022-08-11T14:33:20.408Z,38.94
2022-08-11T14:35:49.445Z,38.57
2022-08-11T14:38:18.117Z,38.86
2022-08-11T14:41:03.443Z,38.85
2022-08-11T14:44:14.003Z,38.83
2022-08-11T14:46:53.786Z,38.92
2022-08-11T14:49:22.127Z,38.80
2022-08-11T14:51:49.896Z,38.79
2022-08-11T14:54:35.251Z,38.84
2022-08-11T14:57:03.270Z,38.54
2022-08-11T14:59:30.975Z,38.93
2022-08-11T15:02:24.751Z,38.89
2022-08-11T15:04:53.107Z,39.19
2022-08-11T15:07:25.254Z,38.77
2022-08-11T15:12:42.013Z,39.00
2022-08-11T15:15:27.141Z,38.73
2022-08-11T15:17:54.852Z,38.93
2022-08-11T15:20:40.263Z,38.86
2022-08-11T15:23:25.401Z,38.97
2022-08-11T15:25:53.165Z,38.68
2022-08-11T15:28:38.614Z,38.77
2022-08-11T15:31:38.526Z,38.73
2022-08-11T15:34:23.718Z,39.03
2022-08-11T15:37:08.823Z,39.25
2022-08-11T15:39:36.589Z,39.05
2022-08-11T15:42:27.001Z,38.94
2022-08-11T15:45:12.143Z,39.28
2022-08-11T15:47:41.396Z,38.89
2022-08-11T15:50:13.382Z,39.00
2022-08-11T15:52:41.698Z,38.85
2022-08-11T15:55:09.419Z,38.55
2022-08-11T15:57:54.670Z,38.83
2022-08-11T16:00:40.115Z,38.88
2022-08-11T16:03:25.686Z,38.97
2022-08-11T16:06:13.468Z,38.90
2022-08-11T16:08:41.287Z,38.66
2022-08-11T16:11:09.272Z,38.49
2022-08-11T16:13:54.376Z,38.58
2022-08-11T16:16:22.323Z,38.51
2022-08-11T16:18:51.561Z,38.78
2022-08-11T16:21:33.857Z,38.76
2022-08-11T16:24:03.065Z,38.81
2022-08-11T16:27:07.470Z,38.40
2022-08-11T16:29:18.599Z,38.96
2022-08-11T16:32:06.431Z,38.78
2022-08-11T16:34:51.656Z,38.73
2022-08-11T16:37:42.465Z,38.89
2022-08-11T16:40:10.420Z,38.87
2022-08-11T16:43:08.595Z,38.67
2022-08-11T16:45:56.894Z,38.60
2022-08-11T16:48:33.488Z,38.70
2022-08-11T16:51:05.359Z,37.89
2022-08-11T16:54:00.247Z,38.20
2022-08-11T16:56:20.863Z,38.18
2022-08-11T16:59:06.294Z,38.04
2022-08-11T17:01:34.053Z,37.77
2022-08-11T17:04:19.226Z,38.12
2022-08-11T17:07:23.661Z,38.42
2022-08-11T17:10:39.636Z,38.17
2022-08-11T17:13:12.636Z,39.09
2022-08-11T17:15:57.841Z,38.50
2022-08-11T17:18:44.180Z,38.40
2022-08-11T17:21:12.785Z,38.52
2022-08-11T17:23:49.856Z,38.24
2022-08-11T17:26:17.614Z,38.83
2022-08-11T17:28:45.323Z,38.73
2022-08-11T17:31:30.509Z,38.94
2022-08-11T17:34:16.118Z,38.83
2022-08-11T17:36:45.739Z,38.47
2022-08-11T17:39:13.766Z,38.81
2022-08-11T17:41:59.129Z,38.80
2022-08-11T17:44:44.289Z,38.73
2022-08-11T17:47:29.920Z,38.79
2022-08-11T17:50:14.568Z,38.46
2022-08-11T17:53:02.919Z,38.46
2022-08-11T17:55:51.830Z,38.38
2022-08-11T17:58:38.149Z,38.29
2022-08-11T18:01:09.249Z,38.46
2022-08-11T18:03:39.679Z,38.43
2022-08-11T18:06:07.791Z,38.57
2022-08-11T18:08:58.094Z,38.71
2022-08-11T18:12:11.992Z,38.74
2022-08-11T18:14:48.589Z,38.79
2022-08-11T18:17:34.063Z,38.70
2022-08-11T18:20:19.741Z,38.86
2022-08-11T18:23:05.049Z,38.73
2022-08-11T18:25:50.104Z,38.73
2022-08-11T18:28:35.408Z,38.77
2022-08-11T18:31:20.744Z,38.97
2022-08-11T18:34:07.779Z,38.76
2022-08-11T18:36:53.259Z,38.98
2022-08-11T18:39:38.778Z,38.80
2022-08-11T18:42:29.309Z,38.75
2022-08-11T18:45:14.961Z,38.61
2022-08-11T18:48:00.148Z,38.72
2022-08-11T18:50:47.387Z,39.04
2022-08-11T18:53:46.176Z,39.16
2022-08-11T18:56:31.658Z,39.00
2022-08-11T18:59:16.835Z,38.72
2022-08-11T19:02:02.175Z,38.67
2022-08-11T19:04:47.424Z,38.46
2022-08-11T19:07:32.717Z,39.00
2022-08-11T19:10:17.946Z,38.13
2022-08-11T19:13:03.275Z,38.60
2022-08-11T19:15:48.579Z,38.82
2022-08-11T19:18:33.783Z,38.88
2022-08-11T19:21:19.260Z,38.98
2022-08-11T19:24:04.708Z,38.89
2022-08-11T19:26:50.403Z,38.65
2022-08-11T19:30:12.036Z,39.02
2022-08-11T19:32:44.112Z,38.89
2022-08-11T19:35:29.485Z,38.79
2022-08-11T19:38:14.973Z,38.87
2022-08-11T19:41:00.491Z,39.08
2022-08-11T19:43:45.683Z,39.02
2022-08-11T19:46:31.183Z,39.09
2022-08-11T19:49:16.277Z,38.77
2022-08-11T19:52:01.580Z,38.66
2022-08-11T19:54:47.153Z,38.78
2022-08-11T19:57:38.766Z,38.91
2022-08-11T20:00:25.228Z,39.14
2022-08-11T20:03:15.415Z,38.46
2022-08-11T20:06:01.011Z,39.20
2022-08-11T20:08:46.155Z,38.83
2022-08-11T20:11:31.620Z,39.24
2022-08-11T20:14:16.815Z,39.17
2022-08-11T20:17:02.390Z,39.28
2022-08-11T20:19:55.923Z,39.30
2022-08-11T20:22:41.985Z,38.84
2022-08-11T20:25:27.516Z,39.02
2022-08-11T20:28:12.903Z,39.47
2022-08-11T20:30:57.948Z,39.29
2022-08-11T20:33:43.567Z,39.51
2022-08-11T20:36:29.022Z,39.37
2022-08-11T20:39:14.208Z,38.72
2022-08-11T20:41:59.746Z,38.76
2022-08-11T20:44:44.929Z,39.21
2022-08-11T20:47:30.303Z,38.65
2022-08-11T20:50:19.433Z,38.59
2022-08-11T20:53:05.905Z,38.74
2022-08-11T20:55:53.911Z,39.36
2022-08-11T21:01:45.331Z,39.29
2022-08-11T21:04:31.017Z,39.27
2022-08-11T21:07:27.595Z,39.20
2022-08-11T21:10:22.892Z,39.33
2022-08-11T21:13:25.298Z,39.36
2022-08-11T21:16:12.076Z,39.42
2022-08-11T21:19:10.188Z,39.30
2022-08-11T21:21:55.840Z,39.43
2022-08-11T21:24:46.818Z,39.38
2022-08-11T21:27:33.292Z,39.53
2022-08-11T21:30:18.515Z,39.47
2022-08-11T21:33:03.902Z,39.11
2022-08-11T21:35:49.449Z,39.38
2022-08-11T21:38:34.842Z,39.42
2022-08-11T21:41:20.389Z,39.62
2022-08-11T21:44:05.675Z,39.29
2022-08-11T21:46:54.232Z,39.24
2022-08-11T21:49:39.449Z,39.42
2022-08-11T21:52:24.588Z,39.44
2022-08-11T21:55:09.740Z,39.53
2022-08-11T21:57:55.242Z,39.34
2022-08-11T22:00:40.735Z,39.34
2022-08-11T22:03:26.047Z,39.47
2022-08-11T22:06:11.621Z,39.26
2022-08-11T22:08:56.917Z,39.09
2022-08-11T22:11:42.177Z,39.38
2022-08-11T22:14:27.405Z,39.52
2022-08-11T22:17:12.751Z,39.47
2022-08-11T22:19:58.141Z,39.51
2022-08-11T22:22:51.223Z,39.40
2022-08-11T22:25:39.064Z,39.26
2022-08-11T22:28:31.868Z,39.58
2022-08-11T22:31:17.073Z,39.53
2022-08-11T22:34:03.401Z,39.30
2022-08-11T22:36:49.048Z,39.56
2022-08-11T22:39:35.441Z,39.41
2022-08-11T22:42:32.220Z,39.50
2022-08-11T22:45:27.083Z,39.72
2022-08-11T22:48:12.533Z,39.47
2022-08-11T22:50:57.704Z,39.65
2022-08-11T22:53:57.808Z,39.64
2022-08-11T22:56:44.022Z,39.56
2022-08-11T22:59:29.487Z,39.50
2022-08-11T23:02:14.508Z,39.56
2022-08-11T23:04:59.836Z,39.44
2022-08-11T23:07:49.863Z,39.32
2022-08-11T23:10:37.189Z,39.72
2022-08-11T23:13:22.782Z,39.87
2022-08-11T23:16:08.096Z,39.71
2022-08-11T23:18:53.366Z,39.60
2022-08-11T23:21:39.270Z,39.81
2022-08-11T23:24:24.937Z,39.79
2022-08-11T23:27:10.100Z,39.59
2022-08-11T23:29:55.940Z,39.49
2022-08-11T23:32:41.443Z,39.70
2022-08-11T23:35:39.254Z,39.64
2022-08-11T23:38:26.124Z,39.55
2022-08-11T23:41:11.459Z,39.48
2022-08-11T23:43:56.905Z,39.69
2022-08-11T23:46:42.055Z,39.57
2022-08-11T23:49:27.597Z,39.67
2022-08-11T23:52:12.979Z,39.48
2022-08-11T23:54:58.065Z,39.56
2022-08-11T23:57:48.808Z,39.62
